createdAt,value
2023-04-27T00:01:38.685Z,8.33
2023-04-27T00:04:07.049Z,8.13
2023-04-27T00:06:34.694Z,8.08
2023-04-27T00:09:02.476Z,8.35
2023-04-27T00:11:29.437Z,8.35
2023-04-27T00:13:56.688Z,8.32
2023-04-27T00:16:23.814Z,8.54
2023-04-27T00:18:51.112Z,8.39
2023-04-27T00:21:18.734Z,8.24
2023-04-27T00:23:46.037Z,7.86
2023-04-27T00:26:12.999Z,8.23
2023-04-27T00:28:39.928Z,8.37
2023-04-27T00:31:06.894Z,8.30
2023-04-27T00:33:33.794Z,8.28
2023-04-27T00:36:04.448Z,8.22
2023-04-27T00:38:31.475Z,8.31
2023-04-27T00:41:06.349Z,8.34
2023-04-27T00:43:34.311Z,7.99
2023-04-27T00:46:01.380Z,8.02
2023-04-27T00:48:28.769Z,8.09
2023-04-27T00:50:56.041Z,8.19
2023-04-27T00:53:22.995Z,8.04
2023-04-27T00:55:49.925Z,7.99
2023-04-27T00:58:16.871Z,7.92
2023-04-27T01:00:44.186Z,7.87
2023-04-27T01:03:11.598Z,7.58
2023-04-27T01:05:39.473Z,7.61
2023-04-27T01:08:06.404Z,7.81
2023-04-27T01:10:33.451Z,7.71
2023-04-27T01:13:00.446Z,7.74
2023-04-27T01:15:27.877Z,7.60
2023-04-27T01:17:59.845Z,7.66
2023-04-27T01:20:30.636Z,7.64
2023-04-27T01:22:58.721Z,7.35
2023-04-27T01:25:26.397Z,7.63
2023-04-27T01:27:54.603Z,7.61
2023-04-27T01:30:22.874Z,7.65
2023-04-27T01:32:50.717Z,7.45
2023-04-27T01:35:18.050Z,7.62
2023-04-27T01:37:44.980Z,7.43
2023-04-27T01:40:13.351Z,7.60
2023-04-27T01:42:40.280Z,7.32
2023-04-27T01:45:07.854Z,7.19
2023-04-27T01:47:34.819Z,7.12
2023-04-27T01:50:01.928Z,6.83
2023-04-27T01:52:28.889Z,6.87
2023-04-27T01:54:55.890Z,6.49
2023-04-27T01:57:22.876Z,6.62
2023-04-27T01:59:49.808Z,6.90
2023-04-27T02:02:16.718Z,6.65
2023-04-27T02:04:45.367Z,7.10
2023-04-27T02:07:12.602Z,6.94
2023-04-27T02:09:39.574Z,7.09
2023-04-27T02:12:06.609Z,7.04
2023-04-27T02:14:33.495Z,6.86
2023-04-27T02:17:00.613Z,6.90
2023-04-27T02:19:27.764Z,6.80
2023-04-27T02:21:54.946Z,6.66
2023-04-27T02:24:21.848Z,6.53
2023-04-27T02:26:48.860Z,6.83
2023-04-27T02:29:17.088Z,6.80
2023-04-27T02:31:44.815Z,6.95
2023-04-27T02:34:11.772Z,6.99
2023-04-27T02:36:38.717Z,7.13
2023-04-27T02:39:05.937Z,7.11
2023-04-27T02:41:33.127Z,6.88
2023-04-27T02:44:00.125Z,6.99
2023-04-27T02:46:27.645Z,7.00
2023-04-27T02:48:56.298Z,6.95
2023-04-27T02:51:23.285Z,6.56
2023-04-27T02:53:50.312Z,6.56
2023-04-27T02:56:17.276Z,6.63
2023-04-27T02:58:45.085Z,6.69
2023-04-27T03:01:12.085Z,6.68
2023-04-27T03:03:39.356Z,6.78
2023-04-27T03:06:06.653Z,6.87
2023-04-27T03:08:33.544Z,6.88
2023-04-27T03:11:00.657Z,6.79
2023-04-27T03:13:28.406Z,6.75
2023-04-27T03:15:55.527Z,6.75
2023-04-27T03:18:22.482Z,6.98
2023-04-27T03:20:49.424Z,6.96
2023-04-27T03:23:16.370Z,6.85
2023-04-27T03:25:43.261Z,6.94
2023-04-27T03:28:10.203Z,6.77
2023-04-27T03:30:39.888Z,6.74
2023-04-27T03:33:06.809Z,6.85
2023-04-27T03:35:33.789Z,7.22
2023-04-27T03:38:00.736Z,6.91
2023-04-27T03:40:27.683Z,6.59
2023-04-27T03:42:54.550Z,6.34
2023-04-27T03:45:22.623Z,6.52
2023-04-27T03:47:49.567Z,6.81
2023-04-27T03:50:16.650Z,6.67
2023-04-27T03:52:43.582Z,6.66
2023-04-27T03:55:10.988Z,6.77
2023-04-27T03:57:37.856Z,7.03
2023-04-27T04:00:08.155Z,7.12
2023-04-27T04:02:35.225Z,7.03
2023-04-27T04:05:02.296Z,6.60
2023-04-27T04:07:29.293Z,6.89
2023-04-27T04:09:56.407Z,6.91
2023-04-27T04:12:23.421Z,6.87
2023-04-27T04:14:50.511Z,7.30
2023-04-27T04:17:17.552Z,7.58
2023-04-27T04:19:44.582Z,7.70
2023-04-27T04:22:12.246Z,8.04
2023-04-27T04:24:40.421Z,8.70
2023-04-27T04:27:07.408Z,8.98
2023-04-27T04:29:34.530Z,9.43
2023-04-27T04:32:01.525Z,9.67
2023-04-27T04:34:29.577Z,9.45
2023-04-27T04:36:57.954Z,9.27
2023-04-27T04:39:24.900Z,9.20
2023-04-27T04:41:51.931Z,9.26
2023-04-27T04:44:20.550Z,9.04
2023-04-27T04:46:47.559Z,9.67
2023-04-27T04:49:14.693Z,10.38
2023-04-27T04:51:45.890Z,11.22
2023-04-27T04:54:12.902Z,11.47
2023-04-27T04:56:39.786Z,11.56
2023-04-27T04:59:06.864Z,11.15
2023-04-27T05:01:33.925Z,11.02
2023-04-27T05:04:01.232Z,10.77
2023-04-27T05:06:28.597Z,11.39
2023-04-27T05:08:55.542Z,10.79
2023-04-27T05:11:22.707Z,10.97
2023-04-27T05:13:49.598Z,10.96
2023-04-27T05:16:16.555Z,10.54
2023-04-27T05:18:43.499Z,10.86
2023-04-27T05:21:17.915Z,10.65
2023-04-27T05:23:44.865Z,10.63
2023-04-27T05:26:16.698Z,10.57
2023-04-27T05:28:43.782Z,10.48
2023-04-27T05:31:11.005Z,10.49
2023-04-27T05:33:37.997Z,10.08
2023-04-27T05:36:05.956Z,10.36
2023-04-27T05:38:35.044Z,10.05
2023-04-27T05:41:02.326Z,10.55
2023-04-27T05:43:29.338Z,11.03
2023-04-27T05:45:56.589Z,11.35
2023-04-27T05:48:24.125Z,11.96
2023-04-27T05:51:00.048Z,12.54
2023-04-27T05:53:27.057Z,12.67
2023-04-27T05:55:54.170Z,12.87
2023-04-27T05:58:21.130Z,12.82
2023-04-27T06:00:48.078Z,12.79
2023-04-27T06:03:15.280Z,12.41
2023-04-27T06:05:42.637Z,12.75
2023-04-27T06:08:09.577Z,12.86
2023-04-27T06:10:37.080Z,13.09
2023-04-27T06:13:03.976Z,14.17
2023-04-27T06:15:30.949Z,15.01
2023-04-27T06:17:58.010Z,16.09
2023-04-27T06:20:25.039Z,16.14
2023-04-27T06:22:51.996Z,16.50
2023-04-27T06:25:18.991Z,17.06
2023-04-27T06:27:46.224Z,17.19
2023-04-27T06:30:13.422Z,17.47
2023-04-27T06:32:41.608Z,17.54
2023-04-27T06:35:09.123Z,17.51
2023-04-27T06:37:36.190Z,17.45
2023-04-27T06:40:04.225Z,16.93
2023-04-27T06:42:31.246Z,16.18
2023-04-27T06:44:58.970Z,16.61
2023-04-27T06:47:26.019Z,17.16
2023-04-27T06:49:53.030Z,17.32
2023-04-27T06:52:19.969Z,17.43
2023-04-27T06:54:47.147Z,17.59
2023-04-27T06:57:14.106Z,18.07
2023-04-27T06:59:41.104Z,18.41
2023-04-27T07:02:08.237Z,18.49
2023-04-27T07:04:35.193Z,18.77
2023-04-27T07:07:02.278Z,19.24
2023-04-27T07:09:29.418Z,19.41
2023-04-27T07:12:00.587Z,19.70
2023-04-27T07:14:27.632Z,19.72
2023-04-27T07:17:10.469Z,19.56
2023-04-27T07:19:46.237Z,19.44
2023-04-27T07:22:13.694Z,20.16
2023-04-27T07:24:40.559Z,20.43
2023-04-27T07:27:07.645Z,21.12
2023-04-27T07:29:34.708Z,21.52
2023-04-27T07:32:02.114Z,21.64
2023-04-27T07:34:41.195Z,21.05
2023-04-27T07:37:17.781Z,21.46
2023-04-27T07:39:44.771Z,20.48
2023-04-27T07:42:12.891Z,20.95
2023-04-27T07:44:41.042Z,21.17
2023-04-27T07:47:09.162Z,20.82
2023-04-27T07:49:37.768Z,20.35
2023-04-27T07:52:05.076Z,20.68
2023-04-27T07:54:32.132Z,18.47
2023-04-27T07:56:59.133Z,18.39
2023-04-27T07:59:29.444Z,18.80
2023-04-27T08:02:07.084Z,19.19
2023-04-27T08:04:43.849Z,20.13
2023-04-27T08:07:11.895Z,20.91
2023-04-27T08:09:41.494Z,21.71
2023-04-27T08:12:24.319Z,21.49
2023-04-27T08:14:53.062Z,21.02
2023-04-27T08:17:25.016Z,21.76
2023-04-27T08:19:52.126Z,22.06
2023-04-27T08:22:20.472Z,20.20
2023-04-27T08:24:51.402Z,20.19
2023-04-27T08:27:33.045Z,20.34
2023-04-27T08:30:01.275Z,19.13
2023-04-27T08:32:28.699Z,20.51
2023-04-27T08:34:56.094Z,19.93
2023-04-27T08:37:23.064Z,20.67
2023-04-27T08:39:50.018Z,20.96
2023-04-27T08:42:17.007Z,21.20
2023-04-27T08:44:44.965Z,22.10
2023-04-27T08:47:12.533Z,21.85
2023-04-27T08:49:41.642Z,22.30
2023-04-27T08:52:15.627Z,22.04
2023-04-27T08:54:43.546Z,21.80
2023-04-27T08:57:14.814Z,22.23
2023-04-27T08:59:41.862Z,22.13
2023-04-27T09:02:20.789Z,21.77
2023-04-27T09:04:48.325Z,20.89
2023-04-27T09:07:17.361Z,21.06
2023-04-27T09:09:45.352Z,21.08
2023-04-27T09:12:22.265Z,20.22
2023-04-27T09:14:59.744Z,19.99
2023-04-27T09:17:28.450Z,20.27
2023-04-27T09:20:09.310Z,21.52
2023-04-27T09:22:55.278Z,19.33
2023-04-27T09:25:29.444Z,18.63
2023-04-27T09:27:58.989Z,18.64
2023-04-27T09:30:26.989Z,20.42
2023-04-27T09:33:04.368Z,20.63
2023-04-27T09:35:33.387Z,19.87
2023-04-27T09:38:01.131Z,21.40
2023-04-27T09:40:32.399Z,20.28
2023-04-27T09:43:04.104Z,21.26
2023-04-27T09:45:33.687Z,22.74
2023-04-27T09:48:02.280Z,23.46
2023-04-27T09:50:29.432Z,23.44
2023-04-27T09:52:57.421Z,21.86
2023-04-27T09:55:28.792Z,20.84
2023-04-27T09:58:14.345Z,21.12
2023-04-27T10:00:57.819Z,21.83
2023-04-27T10:03:48.029Z,22.97
2023-04-27T10:06:52.884Z,23.25
2023-04-27T10:09:26.949Z,21.68
2023-04-27T10:11:55.397Z,21.86
2023-04-27T10:14:24.662Z,21.14
2023-04-27T10:16:57.200Z,22.39
2023-04-27T10:19:26.311Z,22.85
2023-04-27T10:22:06.803Z,22.99
2023-04-27T10:24:42.984Z,24.02
2023-04-27T10:27:20.223Z,24.28
2023-04-27T10:29:48.172Z,24.88
2023-04-27T10:32:26.377Z,26.05
2023-04-27T10:35:09.695Z,26.89
2023-04-27T10:37:43.760Z,27.27
2023-04-27T10:40:17.997Z,27.71
2023-04-27T10:42:46.787Z,27.42
2023-04-27T10:45:14.206Z,25.67
2023-04-27T10:47:43.940Z,25.40
2023-04-27T10:50:13.977Z,25.20
2023-04-27T10:52:47.047Z,25.98
2023-04-27T10:55:17.803Z,26.41
2023-04-27T10:57:48.601Z,26.49
2023-04-27T11:00:23.777Z,25.90
2023-04-27T11:02:51.179Z,26.74
2023-04-27T11:05:19.910Z,26.92
2023-04-27T11:07:49.975Z,25.46
2023-04-27T11:10:18.775Z,25.84
2023-04-27T11:12:46.925Z,26.22
2023-04-27T11:15:14.561Z,25.79
2023-04-27T11:17:41.985Z,25.89
2023-04-27T11:20:09.935Z,25.92
2023-04-27T11:22:47.195Z,25.79
2023-04-27T11:25:14.428Z,25.97
2023-04-27T11:27:42.400Z,25.65
2023-04-27T11:30:29.732Z,25.91
2023-04-27T11:32:57.934Z,26.03
2023-04-27T11:35:37.708Z,26.34
2023-04-27T11:38:04.688Z,25.90
2023-04-27T11:40:32.574Z,24.91
2023-04-27T11:43:00.415Z,24.64
2023-04-27T11:45:28.337Z,23.25
2023-04-27T11:47:56.020Z,22.59
2023-04-27T11:50:26.071Z,22.81
2023-04-27T11:52:53.541Z,23.39
2023-04-27T11:55:26.214Z,22.39
2023-04-27T11:58:00.063Z,20.24
2023-04-27T12:00:27.125Z,21.61
2023-04-27T12:02:54.441Z,21.75
2023-04-27T12:05:22.033Z,22.47
2023-04-27T12:07:49.027Z,23.32
2023-04-27T12:10:16.167Z,23.35
2023-04-27T12:12:43.164Z,24.19
2023-04-27T12:15:13.696Z,24.60
2023-04-27T12:17:40.701Z,25.19
2023-04-27T12:20:08.704Z,24.53
2023-04-27T12:22:35.730Z,25.04
2023-04-27T12:25:02.924Z,24.76
2023-04-27T12:27:30.044Z,21.98
2023-04-27T12:29:59.963Z,22.06
2023-04-27T12:32:28.338Z,22.43
2023-04-27T12:34:55.626Z,22.85
2023-04-27T12:37:24.863Z,23.10
2023-04-27T12:39:53.996Z,20.82
2023-04-27T12:42:24.507Z,20.82
2023-04-27T12:44:52.679Z,21.89
2023-04-27T12:47:45.759Z,20.08
2023-04-27T12:50:10.959Z,19.34
2023-04-27T12:52:38.440Z,19.30
2023-04-27T12:55:28.939Z,19.40
2023-04-27T12:58:03.756Z,20.56
2023-04-27T13:00:31.414Z,20.80
2023-04-27T13:02:58.794Z,20.36
2023-04-27T13:05:31.746Z,20.40
2023-04-27T13:08:01.330Z,20.26
2023-04-27T13:10:29.867Z,19.43
2023-04-27T13:12:56.900Z,20.06
2023-04-27T13:15:24.313Z,21.40
2023-04-27T13:17:53.473Z,22.20
2023-04-27T13:20:21.109Z,22.64
2023-04-27T13:22:48.634Z,23.50
2023-04-27T13:25:16.851Z,23.86
2023-04-27T13:27:44.111Z,24.01
2023-04-27T13:30:11.304Z,24.74
2023-04-27T13:32:38.414Z,24.60
2023-04-27T13:35:05.884Z,24.81
2023-04-27T13:37:32.842Z,23.20
2023-04-27T13:40:00.202Z,21.90
2023-04-27T13:42:29.751Z,20.53
2023-04-27T13:44:59.464Z,20.93
2023-04-27T13:47:26.336Z,19.88
2023-04-27T13:49:53.527Z,20.39
2023-04-27T13:52:20.669Z,20.47
2023-04-27T13:54:47.877Z,20.89
2023-04-27T13:57:14.842Z,20.48
2023-04-27T13:59:41.824Z,21.04
2023-04-27T14:02:09.322Z,21.23
2023-04-27T14:04:36.558Z,21.58
2023-04-27T14:07:03.547Z,22.13
2023-04-27T14:12:42.395Z,19.40
2023-04-27T14:15:09.823Z,19.52
2023-04-27T14:17:37.041Z,19.70
2023-04-27T14:20:07.161Z,19.71
2023-04-27T14:22:35.161Z,20.19
2023-04-27T14:25:02.515Z,20.62
2023-04-27T14:27:29.884Z,20.89
2023-04-27T14:29:56.890Z,21.35
2023-04-27T14:32:24.008Z,21.69
2023-04-27T14:34:51.194Z,22.01
2023-04-27T14:37:18.152Z,22.36
2023-04-27T14:39:46.162Z,21.72
2023-04-27T14:42:13.125Z,22.11
2023-04-27T14:44:40.179Z,20.34
2023-04-27T14:47:07.240Z,20.84
2023-04-27T14:49:34.278Z,19.48
2023-04-27T14:52:04.308Z,19.58
2023-04-27T14:54:31.309Z,19.87
2023-04-27T14:56:59.062Z,20.77
2023-04-27T14:59:26.133Z,21.02
2023-04-27T15:01:53.467Z,21.51
2023-04-27T15:04:21.036Z,20.92
2023-04-27T15:06:48.128Z,21.67
2023-04-27T15:09:15.391Z,21.98
2023-04-27T15:11:42.647Z,22.20
2023-04-27T15:14:09.672Z,21.76
2023-04-27T15:16:36.653Z,21.36
2023-04-27T15:19:03.967Z,20.12
2023-04-27T15:21:31.660Z,20.64
2023-04-27T15:23:58.650Z,20.14
2023-04-27T15:26:27.240Z,20.93
2023-04-27T15:28:55.190Z,21.19
2023-04-27T15:31:22.360Z,20.66
2023-04-27T15:33:49.431Z,19.74
2023-04-27T15:36:17.720Z,18.91
2023-04-27T15:38:44.801Z,17.88
2023-04-27T15:41:12.208Z,18.82
2023-04-27T15:43:39.200Z,18.78
2023-04-27T15:46:06.796Z,18.89
2023-04-27T15:48:33.892Z,19.25
2023-04-27T15:51:00.998Z,18.41
2023-04-27T15:53:28.210Z,18.37
2023-04-27T15:55:55.324Z,18.35
2023-04-27T15:58:22.327Z,17.69
2023-04-27T16:00:49.262Z,17.83
2023-04-27T16:03:16.673Z,17.52
2023-04-27T16:05:44.498Z,17.84
2023-04-27T16:08:11.656Z,18.45
2023-04-27T16:10:38.667Z,18.50
2023-04-27T16:13:05.636Z,19.05
2023-04-27T16:15:32.544Z,19.35
2023-04-27T16:17:59.549Z,18.75
2023-04-27T16:20:29.138Z,19.25
2023-04-27T16:22:56.477Z,19.28
2023-04-27T16:25:23.419Z,19.49
2023-04-27T16:27:51.513Z,18.56
2023-04-27T16:30:18.849Z,17.76
2023-04-27T16:32:45.875Z,18.31
2023-04-27T16:35:13.062Z,17.95
2023-04-27T16:37:40.045Z,18.50
2023-04-27T16:40:08.476Z,17.22
2023-04-27T16:42:35.757Z,17.91
2023-04-27T16:45:02.976Z,16.94
2023-04-27T16:47:31.760Z,17.16
2023-04-27T16:49:58.779Z,17.10
2023-04-27T16:52:26.100Z,16.11
2023-04-27T16:54:53.747Z,16.44
2023-04-27T16:57:20.773Z,16.73
2023-04-27T16:59:47.823Z,16.54
2023-04-27T17:02:24.608Z,16.96
2023-04-27T17:04:53.182Z,16.99
2023-04-27T17:07:20.245Z,16.61
2023-04-27T17:09:47.209Z,16.84
2023-04-27T17:12:15.802Z,16.71
2023-04-27T17:14:42.964Z,16.87
2023-04-27T17:17:11.135Z,16.16
2023-04-27T17:19:39.268Z,17.00
2023-04-27T17:22:08.828Z,16.57
2023-04-27T17:24:35.941Z,16.32
2023-04-27T17:27:04.484Z,16.57
2023-04-27T17:29:32.065Z,16.18
2023-04-27T17:31:59.166Z,16.20
2023-04-27T17:34:26.221Z,16.64
2023-04-27T17:36:53.320Z,17.10
2023-04-27T17:39:22.874Z,17.47
2023-04-27T17:41:49.788Z,17.45
2023-04-27T17:44:17.432Z,17.02
2023-04-27T17:46:49.256Z,16.31
2023-04-27T17:49:17.566Z,16.27
2023-04-27T17:51:48.619Z,17.12
2023-04-27T17:54:15.820Z,17.34
2023-04-27T17:56:43.141Z,17.42
2023-04-27T17:59:10.135Z,16.43
2023-04-27T18:01:37.212Z,16.15
2023-04-27T18:04:06.912Z,15.85
2023-04-27T18:06:34.416Z,16.68
2023-04-27T18:09:01.607Z,16.73
2023-04-27T18:11:29.205Z,16.46
2023-04-27T18:13:58.329Z,16.42
2023-04-27T18:16:25.889Z,16.48
2023-04-27T18:18:52.995Z,16.47
2023-04-27T18:21:20.090Z,16.53
2023-04-27T18:23:47.108Z,16.42
2023-04-27T18:26:14.204Z,16.41
2023-04-27T18:28:42.228Z,16.39
2023-04-27T18:31:17.021Z,16.24
2023-04-27T18:33:45.102Z,16.40
2023-04-27T18:36:12.268Z,16.47
2023-04-27T18:38:39.274Z,16.38
2023-04-27T18:41:06.363Z,16.57
2023-04-27T18:43:36.907Z,16.53
2023-04-27T18:46:04.925Z,16.47
2023-04-27T18:48:32.684Z,16.41
2023-04-27T18:50:59.749Z,16.21
2023-04-27T18:53:28.200Z,16.03
2023-04-27T18:55:55.569Z,16.03
2023-04-27T18:58:22.541Z,15.90
2023-04-27T19:00:49.562Z,15.97
2023-04-27T19:03:16.805Z,15.94
2023-04-27T19:05:44.344Z,15.88
2023-04-27T19:08:11.521Z,15.75
2023-04-27T19:10:41.369Z,15.71
2023-04-27T19:13:08.341Z,15.46
2023-04-27T19:15:35.304Z,15.37
2023-04-27T19:18:10.008Z,15.22
2023-04-27T19:20:38.820Z,15.20
2023-04-27T19:23:05.984Z,14.81
2023-04-27T19:25:32.923Z,14.64
2023-04-27T19:28:00.548Z,14.09
2023-04-27T19:30:27.901Z,14.30
2023-04-27T19:32:54.978Z,14.39
2023-04-27T19:35:24.046Z,14.46
2023-04-27T19:37:51.479Z,14.47
2023-04-27T19:40:18.719Z,14.34
2023-04-27T19:42:45.865Z,14.31
2023-04-27T19:45:12.967Z,14.24
2023-04-27T19:47:40.153Z,14.21
2023-04-27T19:50:07.611Z,14.34
2023-04-27T19:52:34.563Z,14.15
2023-04-27T19:55:01.595Z,14.08
2023-04-27T19:57:28.829Z,13.97
2023-04-27T19:59:55.918Z,13.71
2023-04-27T20:02:23.194Z,13.83
2023-04-27T20:04:50.718Z,13.79
2023-04-27T20:07:18.087Z,13.62
2023-04-27T20:09:44.990Z,13.19
2023-04-27T20:12:28.863Z,13.38
2023-04-27T20:14:58.880Z,13.51
2023-04-27T20:17:29.131Z,13.44
2023-04-27T20:19:56.614Z,13.46
2023-04-27T20:22:23.877Z,13.43
2023-04-27T20:24:50.934Z,13.44
2023-04-27T20:27:17.921Z,13.63
2023-04-27T20:29:46.878Z,12.76
2023-04-27T20:32:13.902Z,13.08
2023-04-27T20:34:40.904Z,13.11
2023-04-27T20:37:07.887Z,12.87
2023-04-27T20:39:35.315Z,12.90
2023-04-27T20:42:02.542Z,12.83
2023-04-27T20:44:29.500Z,12.86
2023-04-27T20:46:56.662Z,12.74
2023-04-27T20:49:32.122Z,12.82
2023-04-27T20:52:02.419Z,12.83
2023-04-27T20:54:32.908Z,12.92
2023-04-27T20:57:03.197Z,12.81
2023-04-27T20:59:30.129Z,12.70
2023-04-27T21:01:57.281Z,13.00
2023-04-27T21:04:24.265Z,13.01
2023-04-27T21:06:51.269Z,12.85
2023-04-27T21:09:18.221Z,12.70
2023-04-27T21:11:45.148Z,12.25
2023-04-27T21:14:12.238Z,11.93
2023-04-27T21:16:39.167Z,11.96
2023-04-27T21:19:06.743Z,11.77
2023-04-27T21:21:33.926Z,11.97
2023-04-27T21:24:07.826Z,11.99
2023-04-27T21:26:35.480Z,12.01
2023-04-27T21:29:05.737Z,11.88
2023-04-27T21:31:33.785Z,12.14
2023-04-27T21:34:01.086Z,12.20
2023-04-27T21:36:28.287Z,12.18
2023-04-27T21:38:55.421Z,12.12
2023-04-27T21:41:22.402Z,12.14
2023-04-27T21:43:49.376Z,11.91
2023-04-27T21:46:16.337Z,12.14
2023-04-27T21:48:43.270Z,12.40
2023-04-27T21:51:10.181Z,12.39
2023-04-27T21:53:37.463Z,12.52
2023-04-27T21:56:04.507Z,12.41
2023-04-27T21:58:31.466Z,12.41
2023-04-27T22:00:58.680Z,12.30
2023-04-27T22:03:26.333Z,12.35
2023-04-27T22:05:54.245Z,12.40
2023-04-27T22:08:22.014Z,12.41
2023-04-27T22:10:48.970Z,12.50
2023-04-27T22:13:19.209Z,12.43
2023-04-27T22:15:47.339Z,12.43
2023-04-27T22:18:15.721Z,12.58
2023-04-27T22:20:43.118Z,12.54
2023-04-27T22:23:10.530Z,12.32
2023-04-27T22:25:37.824Z,12.35
2023-04-27T22:28:04.898Z,12.44
2023-04-27T22:30:31.864Z,12.46
2023-04-27T22:32:58.864Z,12.25
2023-04-27T22:35:27.899Z,12.42
2023-04-27T22:37:59.862Z,12.58
2023-04-27T22:40:26.949Z,12.43
2023-04-27T22:42:55.280Z,12.48
2023-04-27T22:45:23.493Z,12.51
2023-04-27T22:47:50.609Z,12.26
2023-04-27T22:50:17.866Z,12.46
2023-04-27T22:52:45.200Z,12.26
2023-04-27T22:55:12.970Z,12.43
2023-04-27T22:57:41.399Z,12.46
2023-04-27T23:00:11.733Z,12.40
2023-04-27T23:02:40.524Z,12.57
2023-04-27T23:05:09.081Z,12.56
2023-04-27T23:07:36.401Z,12.76
2023-04-27T23:10:03.806Z,12.54
2023-04-27T23:12:31.581Z,12.69
2023-04-27T23:14:59.166Z,12.49
2023-04-27T23:17:32.408Z,12.54
2023-04-27T23:20:13.768Z,12.45
2023-04-27T23:22:44.216Z,12.42
2023-04-27T23:25:11.581Z,12.61
2023-04-27T23:27:38.589Z,12.69
2023-04-27T23:30:06.159Z,12.68
2023-04-27T23:32:33.613Z,12.39
2023-04-27T23:35:00.623Z,12.20
2023-04-27T23:37:27.919Z,12.38
2023-04-27T23:39:54.863Z,12.40
2023-04-27T23:42:21.940Z,12.36
2023-04-27T23:44:48.898Z,12.09
2023-04-27T23:47:16.017Z,12.40
2023-04-27T23:49:45.878Z,12.53
2023-04-27T23:52:12.895Z,12.70
2023-04-27T23:54:39.774Z,12.41
2023-04-27T23:57:06.964Z,12.33
2023-04-27T23:59:35.376Z,11.96
